Time;durP1;ratioP1;P1;durP2;ratioP2;P2;SDS_P1;SDS_P2;PMS_P1;PMS_P2;Temp;Humidity;BMP_temperature;BMP_pressure;BME280_temperature;BME280_humidity;BME280_pressure;Samples;Min_cycle;Max_cycle;Signal;HPM_P1;HPM_P2
2022/10/13 00:01:18;;;;;;;8.50;4.93;;;;;;;12.26;46.92;94593.72;5014907;28;20025;-79
2022/10/13 00:03:45;;;;;;;7.40;4.60;;;;;;;12.18;46.83;94575.00;5029107;28;20152;-81
2022/10/13 00:06:13;;;;;;;7.45;4.50;;;;;;;12.32;46.60;94586.41;5030146;28;20021;-80
2022/10/13 00:08:39;;;;;;;7.25;4.72;;;;;;;12.09;46.78;94555.47;5027936;28;20036;-80
2022/10/13 00:11:19;;;;;;;6.53;4.78;;;;;;;12.31;46.79;94580.28;5031444;28;20025;-80
2022/10/13 00:13:45;;;;;;;8.55;4.93;;;;;;;12.32;46.91;94587.16;5038974;28;20448;-79
2022/10/13 00:16:13;;;;;;;13.18;5.53;;;;;;;12.08;47.07;94543.25;5049214;28;20036;-79
2022/10/13 00:18:39;;;;;;;6.20;4.53;;;;;;;12.09;47.17;94539.47;5048605;28;20111;-81
2022/10/13 00:21:09;;;;;;;8.32;5.03;;;;;;;12.36;47.19;94579.34;5025329;28;20064;-80
2022/10/13 00:23:35;;;;;;;8.80;4.65;;;;;;;12.36;47.30;94574.81;5047221;28;20040;-80
2022/10/13 00:26:04;;;;;;;8.80;4.63;;;;;;;12.16;47.12;94531.84;5049111;28;20454;-79
2022/10/13 00:28:30;;;;;;;7.00;4.18;;;;;;;11.99;47.14;94512.00;5048728;28;20017;-79
2022/10/13 00:30:55;;;;;;;6.65;3.95;;;;;;;12.00;47.22;94526.91;5046414;28;20729;-80
2022/10/13 00:33:21;;;;;;;6.25;4.63;;;;;;;12.32;47.11;94570.41;5029807;28;20389;-82
2022/10/13 00:35:48;;;;;;;6.78;4.75;;;;;;;12.30;47.40;94572.56;5028268;28;20021;-80
2022/10/13 00:38:18;;;;;;;5.05;4.22;;;;;;;12.14;47.45;94542.03;5027580;28;20024;-79
2022/10/13 00:40:44;;;;;;;8.98;4.68;;;;;;;12.29;47.68;94566.44;5042060;28;20478;-79
2022/10/13 00:43:16;;;;;;;5.07;3.60;;;;;;;12.29;47.48;94557.66;5036032;28;20025;-81
2022/10/13 00:45:41;;;;;;;6.95;4.07;;;;;;;12.18;47.46;94543.00;5028665;28;20029;-79
2022/10/13 00:48:07;;;;;;;5.53;3.83;;;;;;;12.11;47.43;94542.66;5042220;28;20070;-79
2022/10/13 00:50:37;;;;;;;5.25;3.53;;;;;;;12.22;47.74;94557.31;5048616;28;20429;-79
2022/10/13 00:53:04;;;;;;;6.03;3.50;;;;;;;12.24;47.70;94560.44;5050087;28;20749;-79
2022/10/13 00:55:31;;;;;;;7.60;4.05;;;;;;;11.91;47.59;94502.06;5050487;28;20021;-80
2022/10/13 00:58:00;;;;;;;7.93;5.22;;;;;;;12.16;47.69;94561.19;5044881;28;20024;-79
2022/10/13 01:00:26;;;;;;;8.13;5.13;;;;;;;11.87;47.94;94508.31;5030392;28;20028;-80
2022/10/13 01:02:52;;;;;;;6.93;4.57;;;;;;;12.06;47.79;94545.44;5049340;28;20071;-78
2022/10/13 01:05:19;;;;;;;6.75;4.07;;;;;;;12.13;48.24;94559.09;5048784;28;20021;-81
2022/10/13 01:07:47;;;;;;;7.35;5.28;;;;;;;11.87;48.39;94517.09;5049627;28;20031;-80
2022/10/13 01:10:23;;;;;;;9.38;5.95;;;;;;;12.13;48.38;94559.09;5047533;28;20567;-81
2022/10/13 01:12:57;;;;;;;10.75;5.75;;;;;;;12.10;48.54;94554.41;5047426;28;20268;-79
2022/10/13 01:15:34;;;;;;;8.20;5.40;;;;;;;11.91;48.76;94528.72;5028982;28;20036;-81
2022/10/13 01:18:44;;;;;;;7.82;4.97;;;;;;;12.10;48.74;94546.41;5030744;28;20021;-79
2022/10/13 01:21:28;;;;;;;9.07;5.78;;;;;;;11.96;48.65;94536.59;4965389;28;20917;-79
2022/10/13 01:24:08;;;;;;;10.60;5.35;;;;;;;12.00;48.71;94547.44;4966513;28;20078;-79
2022/10/13 01:27:04;;;;;;;9.07;5.00;;;;;;;11.00;48.66;94402.97;5019530;28;20095;-79
2022/10/13 01:30:07;;;;;;;10.90;5.78;;;;;;;12.01;48.66;94560.47;5050519;28;20040;-79
2022/10/13 01:33:12;;;;;;;11.30;6.05;;;;;;;11.80;49.09;94527.38;5051091;28;20479;-80
2022/10/13 01:35:55;;;;;;;12.25;5.97;;;;;;;11.95;49.45;94556.34;5051696;28;20037;-80
2022/10/13 01:38:24;;;;;;;11.02;6.53;;;;;;;11.96;49.59;94552.59;5039542;28;20155;-80
2022/10/13 01:41:12;;;;;;;12.20;7.03;;;;;;;11.96;49.65;94557.13;5051068;28;20028;-79
2022/10/13 01:43:45;;;;;;;10.27;5.85;;;;;;;11.76;49.83;94515.75;5031583;28;20048;-79
2022/10/13 01:46:22;;;;;;;10.85;7.45;;;;;;;11.91;49.70;94544.72;5051862;28;20103;-79
2022/10/13 01:48:50;;;;;;;8.98;6.28;;;;;;;11.84;49.54;94533.69;5041052;28;20044;-79
2022/10/13 01:51:19;;;;;;;9.63;5.90;;;;;;;11.94;49.58;94544.09;5037976;28;20025;-79
2022/10/13 01:53:46;;;;;;;11.10;6.63;;;;;;;11.90;49.62;94537.81;5053575;28;20028;-81
2022/10/13 01:56:12;;;;;;;8.82;5.90;;;;;;;11.87;49.74;94533.09;5053287;28;20025;-82
2022/10/13 01:58:37;;;;;;;10.40;5.75;;;;;;;11.94;49.38;94536.09;5051975;28;20037;-79
2022/10/13 02:01:45;;;;;;;9.38;5.78;;;;;;;11.71;49.60;94497.22;5050339;28;20024;-79
2022/10/13 02:04:16;;;;;;;10.85;6.90;;;;;;;12.00;49.98;94537.56;5018901;28;20044;-80
2022/10/13 02:06:51;;;;;;;9.52;5.55;;;;;;;12.00;50.01;94540.22;5030839;28;20033;-79
2022/10/13 02:09:22;;;;;;;;;;;;;;;12.00;49.79;94542.91;5048518;28;20033;-80
2022/10/13 02:11:57;;;;;;;8.23;5.30;;;;;;;11.85;50.02;94524.59;5030176;28;19924;-81
2022/10/13 02:14:26;;;;;;;12.52;6.50;;;;;;;11.98;50.25;94538.94;5049277;28;20431;-80
2022/10/13 02:16:54;;;;;;;13.60;6.80;;;;;;;11.92;50.12;94530.31;5050434;28;20024;-79
2022/10/13 02:19:20;;;;;;;12.27;6.70;;;;;;;11.76;50.06;94505.09;5030539;28;20113;-79
2022/10/13 02:21:47;;;;;;;10.63;6.50;;;;;;;11.78;49.86;94513.59;5037300;28;20021;-80
2022/10/13 02:24:13;;;;;;;10.63;6.28;;;;;;;11.90;50.26;94535.13;5048232;28;20027;-81
2022/10/13 02:26:40;;;;;;;13.00;7.05;;;;;;;11.59;50.21;94483.66;5049992;28;20033;-80
2022/10/13 02:29:14;;;;;;;12.80;7.82;;;;;;;11.88;50.32;94526.66;5040108;28;20029;-81
2022/10/13 02:31:40;;;;;;;10.63;6.32;;;;;;;11.88;50.46;94529.31;5052055;28;20112;-80
2022/10/13 02:34:06;;;;;;;12.05;8.20;;;;;;;11.86;50.40;94531.50;5050789;28;20043;-79
2022/10/13 02:36:32;;;;;;;12.90;7.25;;;;;;;11.81;50.37;94520.97;5052639;28;20155;-80
2022/10/13 02:38:58;;;;;;;11.40;6.05;;;;;;;11.86;50.41;94523.50;5053351;28;20025;-82
2022/10/13 02:41:23;;;;;;;11.32;7.05;;;;;;;11.79;50.75;94515.16;5033219;28;20028;-79
2022/10/13 02:43:49;;;;;;;12.00;6.70;;;;;;;11.81;50.25;94518.31;5050990;28;20029;-80
2022/10/13 02:46:14;;;;;;;10.75;7.32;;;;;;;11.66;50.62;94494.69;5050315;28;20032;-80
2022/10/13 02:48:39;;;;;;;10.95;6.20;;;;;;;11.60;50.47;94487.88;5050220;28;20020;-79
2022/10/13 02:51:05;;;;;;;12.50;7.63;;;;;;;11.53;51.02;94480.34;5044509;28;20499;-80
2022/10/13 02:53:30;;;;;;;11.45;7.70;;;;;;;11.54;50.76;94492.53;5049302;28;20025;-79
2022/10/13 02:55:56;;;;;;;12.93;8.52;;;;;;;11.63;50.80;94494.50;5050533;28;20029;-81
2022/10/13 02:58:21;;;;;;;25.85;9.05;;;;;;;11.61;51.20;94497.47;5051282;28;20035;-80
2022/10/13 03:00:46;;;;;;;14.88;8.90;;;;;;;11.44;51.18;94471.44;5029641;28;20020;-79
2022/10/13 03:03:12;;;;;;;15.93;8.55;;;;;;;11.42;51.13;94467.53;5046656;28;20024;-79
2022/10/13 03:05:37;;;;;;;13.55;8.75;;;;;;;11.53;51.50;94484.88;5038963;28;20472;-80
2022/10/13 03:08:03;;;;;;;17.40;9.73;;;;;;;11.49;51.64;94476.66;5051520;28;20032;-79
2022/10/13 03:10:29;;;;;;;14.73;8.88;;;;;;;11.62;51.28;94488.38;5051669;28;20544;-79
2022/10/13 03:12:55;;;;;;;13.25;8.70;;;;;;;11.71;51.19;94502.56;5031590;28;20056;-79
2022/10/13 03:15:21;;;;;;;13.73;8.85;;;;;;;11.70;51.56;94506.31;5045570;28;20051;-79
2022/10/13 03:17:46;;;;;;;17.13;9.55;;;;;;;11.70;50.99;94511.63;5034102;28;20099;-79
2022/10/13 03:20:12;;;;;;;17.73;11.18;;;;;;;11.38;51.51;94467.34;5028049;28;20112;-78
2022/10/13 03:22:37;;;;;;;16.52;9.85;;;;;;;11.66;51.96;94516.00;5050077;28;20041;-78
2022/10/13 03:25:03;;;;;;;14.95;9.88;;;;;;;11.58;51.88;94514.06;5050654;28;20094;-79
2022/10/13 03:27:28;;;;;;;14.90;9.30;;;;;;;11.63;51.75;94521.94;5034122;28;20621;-79
2022/10/13 03:29:54;;;;;;;16.35;8.85;;;;;;;11.64;51.49;94528.81;5030513;28;20017;-79
2022/10/13 03:32:19;;;;;;;15.25;9.30;;;;;;;11.56;51.64;94521.56;5045929;28;20144;-80
2022/10/13 03:34:44;;;;;;;14.30;9.32;;;;;;;11.26;51.62;94468.94;5048922;28;20486;-80
2022/10/13 03:37:10;;;;;;;17.05;10.88;;;;;;;11.54;51.95;94513.09;5049575;28;20052;-80
2022/10/13 03:39:35;;;;;;;16.15;11.07;;;;;;;11.45;51.99;94501.53;5049586;28;20404;-80
2022/10/13 03:42:00;;;;;;;18.08;10.25;;;;;;;11.60;51.95;94522.53;5048675;28;20468;-80
2022/10/13 03:44:26;;;;;;;18.50;11.50;;;;;;;11.46;52.23;94501.25;5049362;28;20468;-80
2022/10/13 03:46:51;;;;;;;22.65;11.90;;;;;;;11.60;51.93;94523.31;5050716;28;20121;-79
2022/10/13 03:49:17;;;;;;;19.42;12.77;;;;;;;11.05;52.12;94436.69;5048954;28;20410;-80
2022/10/13 03:51:43;;;;;;;22.20;13.10;;;;;;;11.49;52.07;94510.53;5050947;28;20617;-79
2022/10/13 03:54:13;;;;;;;26.35;13.23;;;;;;;11.60;51.85;94523.31;5030080;28;20537;-79
2022/10/13 03:56:39;;;;;;;24.80;14.52;;;;;;;11.22;52.38;94479.41;5047312;28;20047;-80
2022/10/13 03:59:04;;;;;;;21.48;13.45;;;;;;;11.50;52.74;94515.53;5036030;28;20021;-79
2022/10/13 04:01:31;;;;;;;20.95;13.77;;;;;;;11.31;52.88;94492.81;5049034;28;20483;-82
2022/10/13 04:03:58;;;;;;;24.63;14.63;;;;;;;11.37;52.92;94492.41;5048750;28;20027;-79
2022/10/13 04:06:25;;;;;;;23.00;13.98;;;;;;;11.11;52.88;94454.91;5047886;28;20024;-82
2022/10/13 04:08:51;;;;;;;21.52;12.00;;;;;;;11.37;53.05;94487.06;5050056;28;20048;-79
2022/10/13 04:11:17;;;;;;;17.35;11.13;;;;;;;11.46;52.94;94503.13;5050220;28;20119;-79
2022/10/13 04:13:43;;;;;;;18.02;11.27;;;;;;;11.39;52.55;94486.78;5048276;28;20025;-80
2022/10/13 04:16:16;;;;;;;16.60;11.15;;;;;;;11.52;52.44;94508.06;5050928;28;20032;-80
2022/10/13 04:18:42;;;;;;;20.60;11.52;;;;;;;11.49;52.26;94503.28;5046825;28;20119;-81
2022/10/13 04:21:10;;;;;;;20.20;11.73;;;;;;;11.47;52.54;94502.81;5040418;28;20024;-79
2022/10/13 04:23:36;;;;;;;21.65;12.18;;;;;;;11.47;52.34;94502.03;5048429;28;20029;-79
2022/10/13 04:26:03;;;;;;;18.27;11.15;;;;;;;11.40;52.20;94496.31;5048014;28;20031;-79
2022/10/13 04:28:29;;;;;;;19.42;10.63;;;;;;;11.38;52.42;94493.19;5047618;28;20399;-78
2022/10/13 04:30:54;;;;;;;17.15;10.75;;;;;;;11.43;52.25;94501.06;5034135;28;20025;-79
2022/10/13 04:33:20;;;;;;;18.50;11.15;;;;;;;10.92;52.45;94422.31;5046377;28;20032;-79
2022/10/13 04:35:45;;;;;;;19.23;10.85;;;;;;;11.41;52.29;94505.88;5038637;28;20423;-82
2022/10/13 04:38:10;;;;;;;18.00;9.73;;;;;;;11.09;52.14;94448.31;5042984;28;20147;-82
2022/10/13 04:40:36;;;;;;;13.48;9.30;;;;;;;11.31;52.30;94482.94;5048565;28;20039;-79
2022/10/13 04:43:02;;;;;;;15.52;10.32;;;;;;;11.39;52.16;94495.56;5042173;28;20029;-81
2022/10/13 04:45:27;;;;;;;19.10;10.18;;;;;;;11.38;52.17;94503.84;5048734;28;20025;-80
2022/10/13 04:47:53;;;;;;;17.30;10.40;;;;;;;11.24;52.22;94482.59;5046789;28;20035;-80
2022/10/13 04:50:18;;;;;;;14.15;10.15;;;;;;;11.26;52.42;94492.91;5054275;28;20089;-79
2022/10/13 04:52:44;;;;;;;14.90;9.48;;;;;;;11.12;52.36;94469.78;5055510;28;20047;-79
2022/10/13 04:55:09;;;;;;;20.00;11.10;;;;;;;11.26;52.69;94495.56;5056808;28;20055;-79
2022/10/13 04:57:35;;;;;;;28.52;10.50;;;;;;;11.30;53.02;94515.19;5037378;28;20145;-79
2022/10/13 05:00:00;;;;;;;18.25;9.75;;;;;;;11.27;53.29;94507.81;5054846;28;20033;-79
2022/10/13 05:02:26;;;;;;;19.10;11.30;;;;;;;11.21;53.39;94498.34;5054341;28;20508;-81
2022/10/13 05:04:51;;;;;;;20.27;11.43;;;;;;;11.23;53.70;94507.63;5056274;28;20045;-79
2022/10/13 05:07:17;;;;;;;25.77;14.40;;;;;;;11.24;53.92;94513.75;5054549;28;20075;-82
2022/10/13 05:09:42;;;;;;;28.45;15.93;;;;;;;11.15;54.41;94500.34;5055676;28;20522;-79
2022/10/13 05:12:08;;;;;;;26.23;13.88;;;;;;;11.32;54.49;94523.69;5055817;28;20044;-80
2022/10/13 05:14:33;;;;;;;29.30;15.88;;;;;;;11.27;54.46;94513.13;5037086;28;20025;-79
2022/10/13 05:17:00;;;;;;;32.70;16.20;;;;;;;10.97;54.65;94464.78;5055325;28;20013;-79
2022/10/13 05:19:25;;;;;;;31.80;16.40;;;;;;;11.38;54.85;94530.47;5054296;28;20032;-79
2022/10/13 05:21:51;;;;;;;30.17;16.23;;;;;;;11.41;55.03;94540.50;5054861;28;20024;-80
2022/10/13 05:24:16;;;;;;;30.02;17.65;;;;;;;11.37;55.12;94528.88;5055210;28;20032;-80
2022/10/13 05:26:42;;;;;;;27.63;14.50;;;;;;;11.11;55.32;94488.72;5035434;28;20063;-79
2022/10/13 05:29:07;;;;;;;25.38;14.73;;;;;;;11.18;55.43;94497.88;5035557;28;20100;-79
2022/10/13 05:31:35;;;;;;;25.67;14.88;;;;;;;11.51;55.25;94540.31;5053846;28;20147;-81
2022/10/13 05:34:01;;;;;;;29.13;15.13;;;;;;;11.31;55.26;94503.44;5033680;28;20027;-80
2022/10/13 05:36:32;;;;;;;24.65;15.05;;;;;;;11.22;55.47;94483.97;5054797;28;20055;-80
2022/10/13 05:39:03;;;;;;;22.15;13.43;;;;;;;11.56;55.46;94537.53;5033427;28;20021;-80
2022/10/13 05:41:29;;;;;;;25.83;13.57;;;;;;;11.55;55.37;94539.41;5053461;28;20108;-79
2022/10/13 05:44:01;;;;;;;28.42;13.48;;;;;;;11.65;55.38;94556.25;5033781;28;20029;-80
2022/10/13 05:46:27;;;;;;;18.65;12.00;;;;;;;11.67;54.95;94551.44;5042644;28;20029;-80
2022/10/13 05:48:53;;;;;;;22.23;13.98;;;;;;;11.58;55.06;94535.38;5036719;28;20052;-81
2022/10/13 05:51:23;;;;;;;21.33;13.30;;;;;;;11.43;55.11;94509.84;5041296;28;20071;-82
2022/10/13 05:53:52;;;;;;;22.02;13.20;;;;;;;11.84;55.32;94564.88;5032927;28;20035;-81
2022/10/13 05:56:22;;;;;;;23.02;12.88;;;;;;;11.82;54.96;94567.84;5053512;28;20058;-81
2022/10/13 05:58:56;;;;;;;24.27;12.40;;;;;;;11.93;55.40;94579.84;5032471;28;20032;-80
2022/10/13 06:01:25;;;;;;;20.85;12.30;;;;;;;11.82;55.01;94554.53;5050793;28;20074;-80
2022/10/13 06:03:53;;;;;;;20.02;12.20;;;;;;;11.81;55.26;94549.50;5049303;28;20035;-80
2022/10/13 06:06:18;;;;;;;24.90;13.15;;;;;;;12.03;55.12;94573.47;5053100;28;20044;-82
2022/10/13 06:08:44;;;;;;;21.95;12.50;;;;;;;11.98;54.85;94550.41;5051367;28;20194;-79
2022/10/13 06:11:09;;;;;;;18.10;12.93;;;;;;;12.04;54.95;94559.84;5051554;28;20036;-79
2022/10/13 06:13:35;;;;;;;24.35;13.77;;;;;;;11.81;54.65;94528.19;5032497;28;20492;-79
2022/10/13 06:16:01;;;;;;;23.67;13.10;;;;;;;11.93;54.97;94547.84;5030955;28;20129;-82
2022/10/13 06:18:27;;;;;;;20.23;12.98;;;;;;;12.11;54.64;94555.97;5048834;28;20439;-80
2022/10/13 06:20:52;;;;;;;24.15;13.73;;;;;;;11.87;54.76;94522.44;5052194;28;20052;-80
2022/10/13 06:23:18;;;;;;;26.60;15.68;;;;;;;11.97;55.03;94529.38;5049813;28;20096;-79
2022/10/13 06:25:51;;;;;;;26.95;14.02;;;;;;;12.21;54.89;94569.06;5051669;28;20028;-80
2022/10/13 06:28:20;;;;;;;27.38;13.07;;;;;;;12.32;55.19;94573.06;5037510;28;20020;-79
2022/10/13 06:30:52;;;;;;;27.58;15.23;;;;;;;12.24;55.34;94547.91;5051483;28;20021;-80
2022/10/13 06:33:18;;;;;;;23.75;14.38;;;;;;;12.34;55.25;94552.19;5051481;28;20105;-79
2022/10/13 06:35:43;;;;;;;27.85;16.23;;;;;;;12.33;55.49;94540.72;5052082;28;20810;-80
2022/10/13 06:38:08;;;;;;;29.95;15.45;;;;;;;12.41;54.91;94555.22;5051578;28;20088;-80
2022/10/13 06:40:34;;;;;;;33.00;16.02;;;;;;;12.53;54.81;94560.75;5051499;28;20651;-79
2022/10/13 06:42:59;;;;;;;29.15;16.33;;;;;;;12.58;55.31;94562.50;5047790;28;20507;-80
2022/10/13 06:45:25;;;;;;;28.80;16.50;;;;;;;12.64;55.20;94564.78;5047949;28;20115;-81
2022/10/13 06:47:53;;;;;;;23.25;14.93;;;;;;;12.70;55.05;94562.75;5051607;28;20025;-81
2022/10/13 06:50:19;;;;;;;30.60;16.27;;;;;;;12.72;55.08;94553.34;5051421;28;20024;-79
2022/10/13 06:52:44;;;;;;;27.25;13.82;;;;;;;12.75;55.13;94541.28;5051046;28;20691;-79
2022/10/13 06:55:09;;;;;;;27.95;15.93;;;;;;;12.67;54.80;94528.66;5050827;28;20038;-79
2022/10/13 06:57:35;;;;;;;32.90;17.05;;;;;;;12.68;54.85;94543.59;5050124;28;20048;-79
2022/10/13 07:00:00;;;;;;;27.17;15.35;;;;;;;12.77;54.94;94561.22;5048588;28;20589;-79
2022/10/13 07:02:26;;;;;;;26.95;15.80;;;;;;;12.73;54.82;94544.25;5030075;28;20059;-80
2022/10/13 07:04:51;;;;;;;26.13;14.93;;;;;;;12.70;54.82;94539.53;5048795;28;20056;-81
2022/10/13 07:07:17;;;;;;;30.55;16.92;;;;;;;12.85;54.73;94557.81;5049144;28;20106;-79
2022/10/13 07:09:42;;;;;;;29.33;15.73;;;;;;;12.73;54.35;94532.78;5050816;28;20048;-79
2022/10/13 07:12:07;;;;;;;24.67;15.27;;;;;;;12.81;54.70;94556.81;5047906;28;20582;-79
2022/10/13 07:14:33;;;;;;;33.30;18.25;;;;;;;12.79;54.61;94532.34;5046836;28;20016;-80
2022/10/13 07:16:59;;;;;;;32.10;17.02;;;;;;;12.87;54.83;94534.25;5046968;28;20025;-81
2022/10/13 07:19:24;;;;;;;33.03;16.80;;;;;;;12.92;54.14;94552.00;5047206;28;20024;-81
2022/10/13 07:21:50;;;;;;;32.17;15.85;;;;;;;12.89;53.87;94545.41;5044014;28;20036;-79
2022/10/13 07:24:15;;;;;;;27.05;16.65;;;;;;;12.97;54.43;94553.72;5046315;28;20111;-79
2022/10/13 07:26:40;;;;;;;27.60;16.85;;;;;;;13.00;54.68;94547.78;5048278;28;20081;-80
2022/10/13 07:29:06;;;;;;;26.73;16.38;;;;;;;13.01;54.54;94549.34;5030002;28;20027;-78
2022/10/13 07:31:32;;;;;;;25.35;15.57;;;;;;;12.77;54.40;94497.16;5048314;28;20033;-80
2022/10/13 07:33:58;;;;;;;34.55;16.67;;;;;;;13.11;53.91;94541.03;5046067;28;20024;-79
2022/10/13 07:36:24;;;;;;;24.00;14.10;;;;;;;13.26;53.73;94559.31;5048225;28;20033;-80
2022/10/13 07:38:50;;;;;;;24.60;14.90;;;;;;;13.31;53.95;94553.81;5030616;28;20025;-79
2022/10/13 07:41:16;;;;;;;27.13;15.40;;;;;;;13.14;53.55;94521.75;5032535;28;20021;-80
2022/10/13 07:43:41;;;;;;;23.08;14.35;;;;;;;13.32;52.93;94542.03;5045008;28;20147;-80
2022/10/13 07:46:07;;;;;;;27.38;16.17;;;;;;;13.05;52.58;94516.41;5039631;28;20090;-80
2022/10/13 07:48:33;;;;;;;22.30;15.05;;;;;;;13.31;53.44;94554.59;5045094;28;20025;-80
2022/10/13 07:51:06;;;;;;;22.52;14.70;;;;;;;12.83;53.23;94465.75;5043330;28;20032;-80
2022/10/13 07:53:31;;;;;;;23.85;13.60;;;;;;;12.93;52.61;94478.03;5044143;28;20025;-80
2022/10/13 07:56:01;;;;;;;23.20;14.65;;;;;;;13.26;52.29;94529.94;5047473;28;20032;-80
2022/10/13 07:58:27;;;;;;;23.33;14.20;;;;;;;13.42;52.33;94555.09;5048155;28;20078;-80
2022/10/13 08:00:58;;;;;;;21.10;14.98;;;;;;;13.31;52.38;94521.75;5028443;28;20512;-82
2022/10/13 08:03:23;;;;;;;25.27;14.00;;;;;;;13.24;52.55;94492.06;5044166;28;20576;-81
2022/10/13 08:05:49;;;;;;;25.38;15.25;;;;;;;13.64;52.98;94548.88;5047781;28;20024;-81
2022/10/13 08:08:14;;;;;;;28.08;15.65;;;;;;;13.49;52.63;94514.56;5046769;28;20370;-80
2022/10/13 08:10:40;;;;;;;23.55;15.07;;;;;;;13.29;52.55;94513.28;5048068;28;20039;-81
2022/10/13 08:13:05;;;;;;;26.17;15.65;;;;;;;12.97;53.62;94511.00;5046525;28;20049;-80
2022/10/13 08:15:31;;;;;;;27.70;15.95;;;;;;;13.41;53.53;94540.16;5048353;28;20037;-79
2022/10/13 08:17:58;;;;;;;25.83;15.20;;;;;;;13.33;53.33;94499.00;5048146;28;20040;-80
2022/10/13 08:20:24;;;;;;;31.45;17.13;;;;;;;13.66;53.40;94533.28;5029321;28;20040;-80
2022/10/13 08:22:49;;;;;;;24.08;15.77;;;;;;;13.77;53.01;94545.25;5044971;28;20052;-80
2022/10/13 08:25:14;;;;;;;27.65;15.27;;;;;;;13.60;53.39;94505.94;5045536;28;20034;-80
2022/10/13 08:27:40;;;;;;;24.15;16.00;;;;;;;13.86;53.20;94537.22;5045736;28;20555;-80
2022/10/13 08:30:06;;;;;;;30.63;16.88;;;;;;;13.77;52.56;94520.41;5032046;28;20511;-80
2022/10/13 08:32:31;;;;;;;29.25;17.10;;;;;;;13.90;52.89;94528.25;5048708;28;20028;-80
2022/10/13 08:34:57;;;;;;;27.67;16.50;;;;;;;13.84;52.36;94500.09;5047456;28;20044;-80
2022/10/13 08:37:22;;;;;;;27.73;16.10;;;;;;;13.88;52.38;94513.63;5047286;28;20493;-82
2022/10/13 08:39:47;;;;;;;30.60;16.80;;;;;;;14.03;52.92;94529.19;5048774;28;20031;-80
2022/10/13 08:42:17;;;;;;;31.27;18.13;;;;;;;14.13;52.39;94526.19;5049019;28;20029;-81
2022/10/13 08:44:48;;;;;;;27.80;16.15;;;;;;;14.14;52.11;94517.84;5046484;28;20496;-79
2022/10/13 08:47:34;;;;;;;29.17;17.25;;;;;;;14.23;51.97;94519.72;5028833;28;20057;-80
2022/10/13 08:50:06;;;;;;;31.98;18.13;;;;;;;14.27;52.02;94520.66;5024304;28;20036;-79
2022/10/13 08:53:13;;;;;;;31.73;18.45;;;;;;;14.29;51.78;94519.22;5028300;28;20040;-80
2022/10/13 08:55:43;;;;;;;31.08;18.08;;;;;;;14.35;52.02;94512.59;4973496;28;20041;-80
2022/10/13 08:58:20;;;;;;;33.05;17.70;;;;;;;14.44;51.89;94510.66;5033805;28;20066;-79
2022/10/13 09:00:45;;;;;;;30.75;16.90;;;;;;;14.53;51.72;94508.78;5044975;28;20122;-79
2022/10/13 09:03:24;;;;;;;38.17;16.65;;;;;;;14.63;51.57;94504.19;5040699;28;20033;-81
2022/10/13 09:05:57;;;;;;;31.50;16.42;;;;;;;14.40;51.09;94474.97;5026043;28;20946;-80
2022/10/13 09:08:25;;;;;;;30.70;16.65;;;;;;;14.67;51.12;94502.44;5029522;28;20499;-80
2022/10/13 09:10:51;;;;;;;28.92;18.25;;;;;;;14.45;51.29;94460.63;5024713;28;20083;-80
2022/10/13 09:13:18;;;;;;;28.38;17.67;;;;;;;14.64;50.82;94492.38;5040954;28;20044;-80
2022/10/13 09:15:51;;;;;;;29.25;19.27;;;;;;;14.58;50.92;94479.16;5027777;28;20028;-79
2022/10/13 09:18:17;;;;;;;29.45;17.85;;;;;;;14.81;51.16;94498.44;5031611;28;20122;-80
2022/10/13 09:20:42;;;;;;;30.55;17.92;;;;;;;14.38;51.19;94434.34;5045333;28;20535;-80
2022/10/13 09:23:21;;;;;;;27.85;17.77;;;;;;;14.65;51.31;94472.53;5044185;28;20043;-80
2022/10/13 09:25:51;;;;;;;27.25;17.70;;;;;;;14.72;50.82;94470.91;5046474;28;20079;-80
2022/10/13 09:28:29;;;;;;;28.77;17.35;;;;;;;14.96;51.09;94486.41;5045124;28;20020;-79
2022/10/13 09:31:12;;;;;;;29.30;17.63;;;;;;;15.00;51.05;94485.41;5036070;28;20060;-80
2022/10/13 09:33:38;;;;;;;30.52;18.55;;;;;;;14.88;50.99;94455.06;5033707;28;20090;-80
2022/10/13 09:36:05;;;;;;;24.38;15.13;;;;;;;15.06;50.28;94480.63;5027013;28;20175;-80
2022/10/13 09:38:31;;;;;;;30.02;16.60;;;;;;;14.98;50.47;94460.06;5047585;28;20036;-79
2022/10/13 09:41:04;;;;;;;31.50;15.10;;;;;;;14.95;50.33;94471.44;5049959;28;20028;-81
2022/10/13 09:43:39;;;;;;;27.00;15.18;;;;;;;14.81;50.12;94454.81;5048917;28;20102;-80
2022/10/13 09:46:25;;;;;;;30.73;16.38;;;;;;;14.93;50.76;94473.63;5054008;28;20582;-82
2022/10/13 09:48:57;;;;;;;29.48;15.68;;;;;;;14.86;50.78;94462.66;5038992;28;20052;-80
2022/10/13 09:51:37;;;;;;;33.10;15.48;;;;;;;14.86;51.05;94433.19;5028700;28;20023;-80
2022/10/13 09:54:03;;;;;;;24.80;15.77;;;;;;;15.00;51.52;94444.44;5039555;28;20897;-80
2022/10/13 09:56:42;;;;;;;28.90;15.15;;;;;;;15.04;51.59;94442.69;5027502;28;20028;-80
2022/10/13 09:59:23;;;;;;;24.55;15.48;;;;;;;15.34;50.98;94462.19;5050211;28;20247;-80
2022/10/13 10:01:50;;;;;;;30.98;16.67;;;;;;;15.34;50.34;94446.09;5048890;28;20530;-81
2022/10/13 10:04:22;;;;;;;24.83;15.40;;;;;;;15.53;50.49;94464.41;5034162;28;20596;-80
2022/10/13 10:06:47;;;;;;;26.90;15.65;;;;;;;15.23;49.80;94402.84;5047722;28;20027;-80
2022/10/13 10:09:35;;;;;;;27.63;15.82;;;;;;;15.21;49.66;94380.91;5050950;28;20021;-81
2022/10/13 10:12:02;;;;;;;27.73;16.10;;;;;;;15.63;49.21;94434.53;5021094;28;20079;-80
2022/10/13 10:14:35;;;;;;;28.00;16.17;;;;;;;15.65;49.32;94430.38;5030015;28;20627;-82
2022/10/13 10:17:22;;;;;;;25.77;15.93;;;;;;;15.79;49.11;94441.63;5028377;28;20673;-80
2022/10/13 10:20:00;;;;;;;25.52;16.33;;;;;;;15.76;49.17;94430.78;5008719;28;20615;-80
2022/10/13 10:22:28;;;;;;;22.88;16.00;;;;;;;15.82;49.00;94432.94;5028413;28;20511;-80
2022/10/13 10:25:17;;;;;;;26.13;15.00;;;;;;;15.86;48.92;94433.81;5017055;28;20029;-82
2022/10/13 10:28:30;;;;;;;26.17;16.00;;;;;;;15.79;48.42;94443.53;5030852;28;20025;-80
2022/10/13 10:31:25;;;;;;;29.40;15.70;;;;;;;15.58;48.80;94410.59;5012129;28;21171;-80
2022/10/13 10:33:59;;;;;;;23.88;14.35;;;;;;;15.82;49.30;94429.47;5029845;28;20051;-80
2022/10/13 10:37:09;;;;;;;26.15;15.40;;;;;;;15.80;48.83;94423.63;5028135;28;20025;-80
2022/10/13 10:39:37;;;;;;;24.73;14.27;;;;;;;15.63;50.00;94405.03;5004207;28;20037;-80
2022/10/13 10:42:19;;;;;;;25.58;14.90;;;;;;;15.79;51.32;94408.66;5028436;28;20469;-80
2022/10/13 10:44:47;;;;;;;25.98;14.10;;;;;;;16.01;51.15;94405.59;5030850;28;20479;-81
2022/10/13 10:47:26;;;;;;;27.10;13.85;;;;;;;16.04;50.22;94393.38;5028697;28;20104;-80
2022/10/13 10:49:58;;;;;;;27.30;14.82;;;;;;;16.00;48.71;94377.19;5024020;28;20017;-80
2022/10/13 10:52:33;;;;;;;26.50;15.05;;;;;;;16.14;48.64;94383.00;5030304;28;20033;-80
2022/10/13 10:55:10;;;;;;;;;;;;;;;16.32;48.86;94397.06;5030649;28;20032;-80
2022/10/13 10:57:51;;;;;;;22.00;14.68;;;;;;;16.36;48.16;94394.47;5028575;28;19913;-82
2022/10/13 11:00:20;;;;;;;21.90;12.90;;;;;;;16.38;48.21;94381.50;5012312;28;20021;-80
2022/10/13 11:03:06;;;;;;;21.83;14.63;;;;;;;16.51;48.34;94385.75;5030581;28;20475;-80
2022/10/13 11:06:19;;;;;;;24.92;14.45;;;;;;;16.59;47.94;94376.78;5018591;28;20561;-82
2022/10/13 11:08:47;;;;;;;23.02;13.13;;;;;;;16.59;48.00;94366.06;5026857;28;20035;-79
2022/10/13 11:11:21;;;;;;;27.00;14.02;;;;;;;16.64;48.28;94363.13;5029374;28;20033;-81
2022/10/13 11:13:58;;;;;;;25.55;14.50;;;;;;;16.60;47.79;94348.81;5046951;28;20032;-80
2022/10/13 11:16:37;;;;;;;25.35;15.57;;;;;;;16.65;48.33;94343.22;5038582;28;20029;-82
2022/10/13 11:19:26;;;;;;;25.13;14.25;;;;;;;16.75;47.89;94358.88;5048514;28;20451;-80
2022/10/13 11:21:58;;;;;;;20.52;12.93;;;;;;;16.77;47.17;94359.31;5032930;28;20170;-79
2022/10/13 11:24:33;;;;;;;22.25;13.40;;;;;;;16.81;47.35;94352.16;5027201;28;20042;-81
2022/10/13 11:27:10;;;;;;;22.90;14.38;;;;;;;16.77;47.50;94356.63;5048793;28;20099;-81
2022/10/13 11:29:47;;;;;;;21.35;13.07;;;;;;;16.86;47.52;94349.25;5047888;28;20036;-80
2022/10/13 11:35:05;;;;;;;18.52;11.20;;;;;;;16.97;46.83;94344.16;5050339;28;20021;-82
2022/10/13 11:37:38;;;;;;;21.10;13.43;;;;;;;16.99;46.69;94337.34;5047556;28;20103;-80